sensor_id;sensor_type;location;lat;lon;timestamp;P1;durP1;ratioP1;P2;durP2;ratioP2
1545;SDS011;766;51.502;9.752;2023-04-15T00:01:58;7.22;;;4.60;;
1545;SDS011;766;51.502;9.752;2023-04-15T00:04:27;5.15;;;4.60;;
1545;SDS011;766;51.502;9.752;2023-04-15T00:06:57;7.63;;;4.30;;
1545;SDS011;766;51.502;9.752;2023-04-15T00:09:26;6.28;;;4.80;;
1545;SDS011;766;51.502;9.752;2023-04-15T00:11:55;6.53;;;4.70;;
1545;SDS011;766;51.502;9.752;2023-04-15T00:14:24;5.57;;;4.45;;
1545;SDS011;766;51.502;9.752;2023-04-15T00:16:53;6.25;;;5.00;;
1545;SDS011;766;51.502;9.752;2023-04-15T00:19:22;6.88;;;4.95;;
1545;SDS011;766;51.502;9.752;2023-04-15T00:21:51;5.15;;;4.40;;
1545;SDS011;766;51.502;9.752;2023-04-15T00:24:19;5.25;;;4.05;;
1545;SDS011;766;51.502;9.752;2023-04-15T00:26:48;5.35;;;4.43;;
1545;SDS011;766;51.502;9.752;2023-04-15T00:29:16;5.60;;;4.10;;
1545;SDS011;766;51.502;9.752;2023-04-15T00:31:46;6.22;;;4.65;;
1545;SDS011;766;51.502;9.752;2023-04-15T00:34:18;6.95;;;4.40;;
1545;SDS011;766;51.502;9.752;2023-04-15T00:36:46;6.07;;;4.78;;
1545;SDS011;766;51.502;9.752;2023-04-15T00:39:15;6.90;;;5.13;;
1545;SDS011;766;51.502;9.752;2023-04-15T00:41:43;7.63;;;4.80;;
1545;SDS011;766;51.502;9.752;2023-04-15T00:44:12;10.10;;;5.70;;
1545;SDS011;766;51.502;9.752;2023-04-15T00:46:41;11.57;;;6.03;;
1545;SDS011;766;51.502;9.752;2023-04-15T00:49:12;7.72;;;5.47;;
1545;SDS011;766;51.502;9.752;2023-04-15T00:51:41;7.97;;;5.95;;
1545;SDS011;766;51.502;9.752;2023-04-15T00:54:10;7.95;;;5.82;;
1545;SDS011;766;51.502;9.752;2023-04-15T00:56:38;8.45;;;5.13;;
1545;SDS011;766;51.502;9.752;2023-04-15T00:59:07;6.88;;;5.65;;
1545;SDS011;766;51.502;9.752;2023-04-15T01:01:36;9.07;;;5.63;;
1545;SDS011;766;51.502;9.752;2023-04-15T01:04:05;7.28;;;5.65;;
1545;SDS011;766;51.502;9.752;2023-04-15T01:06:37;7.78;;;5.75;;
1545;SDS011;766;51.502;9.752;2023-04-15T01:09:05;8.98;;;5.65;;
1545;SDS011;766;51.502;9.752;2023-04-15T01:11:34;8.10;;;5.00;;
1545;SDS011;766;51.502;9.752;2023-04-15T01:14:02;7.45;;;5.45;;
1545;SDS011;766;51.502;9.752;2023-04-15T01:16:31;10.30;;;6.07;;
1545;SDS011;766;51.502;9.752;2023-04-15T01:19:00;7.30;;;5.65;;
1545;SDS011;766;51.502;9.752;2023-04-15T01:21:28;8.27;;;5.78;;
1545;SDS011;766;51.502;9.752;2023-04-15T01:23:58;9.68;;;5.97;;
1545;SDS011;766;51.502;9.752;2023-04-15T01:26:29;9.82;;;6.32;;
1545;SDS011;766;51.502;9.752;2023-04-15T01:28:57;8.25;;;5.97;;
1545;SDS011;766;51.502;9.752;2023-04-15T01:31:27;8.25;;;6.30;;
1545;SDS011;766;51.502;9.752;2023-04-15T01:33:55;8.88;;;6.10;;
1545;SDS011;766;51.502;9.752;2023-04-15T01:36:24;7.55;;;5.93;;
1545;SDS011;766;51.502;9.752;2023-04-15T01:38:52;7.22;;;5.32;;
1545;SDS011;766;51.502;9.752;2023-04-15T01:41:23;7.53;;;5.53;;
1545;SDS011;766;51.502;9.752;2023-04-15T01:43:54;7.50;;;5.43;;
1545;SDS011;766;51.502;9.752;2023-04-15T01:46:34;7.97;;;5.68;;
1545;SDS011;766;51.502;9.752;2023-04-15T01:49:02;8.40;;;5.88;;
1545;SDS011;766;51.502;9.752;2023-04-15T01:51:31;10.10;;;6.40;;
1545;SDS011;766;51.502;9.752;2023-04-15T01:53:59;8.70;;;6.22;;
1545;SDS011;766;51.502;9.752;2023-04-15T01:56:28;8.05;;;6.15;;
1545;SDS011;766;51.502;9.752;2023-04-15T01:58:57;10.00;;;6.65;;
1545;SDS011;766;51.502;9.752;2023-04-15T02:01:26;9.95;;;6.70;;
1545;SDS011;766;51.502;9.752;2023-04-15T02:03:54;10.25;;;7.07;;
1545;SDS011;766;51.502;9.752;2023-04-15T02:06:23;9.00;;;6.70;;
1545;SDS011;766;51.502;9.752;2023-04-15T02:08:57;10.02;;;7.10;;
1545;SDS011;766;51.502;9.752;2023-04-15T02:11:26;10.30;;;7.07;;
1545;SDS011;766;51.502;9.752;2023-04-15T02:13:54;8.88;;;6.50;;
1545;SDS011;766;51.502;9.752;2023-04-15T02:16:24;9.07;;;6.57;;
1545;SDS011;766;51.502;9.752;2023-04-15T02:18:52;9.07;;;6.75;;
1545;SDS011;766;51.502;9.752;2023-04-15T02:21:21;10.75;;;6.50;;
1545;SDS011;766;51.502;9.752;2023-04-15T02:23:49;7.85;;;5.85;;
1545;SDS011;766;51.502;9.752;2023-04-15T02:26:19;8.07;;;6.18;;
1545;SDS011;766;51.502;9.752;2023-04-15T02:28:48;8.30;;;6.50;;
1545;SDS011;766;51.502;9.752;2023-04-15T02:31:16;12.85;;;6.43;;
1545;SDS011;766;51.502;9.752;2023-04-15T02:33:48;9.32;;;6.53;;
1545;SDS011;766;51.502;9.752;2023-04-15T02:36:16;8.45;;;6.40;;
1545;SDS011;766;51.502;9.752;2023-04-15T02:38:45;8.30;;;6.35;;
1545;SDS011;766;51.502;9.752;2023-04-15T02:41:13;9.65;;;6.30;;
1545;SDS011;766;51.502;9.752;2023-04-15T02:43:42;9.25;;;5.88;;
1545;SDS011;766;51.502;9.752;2023-04-15T02:46:11;8.65;;;6.13;;
1545;SDS011;766;51.502;9.752;2023-04-15T02:48:40;7.75;;;6.05;;
1545;SDS011;766;51.502;9.752;2023-04-15T02:51:16;6.72;;;5.75;;
1545;SDS011;766;51.502;9.752;2023-04-15T02:53:47;8.18;;;6.25;;
1545;SDS011;766;51.502;9.752;2023-04-15T02:56:15;10.38;;;7.05;;
1545;SDS011;766;51.502;9.752;2023-04-15T02:58:45;10.00;;;7.55;;
1545;SDS011;766;51.502;9.752;2023-04-15T03:01:16;8.07;;;6.32;;
1545;SDS011;766;51.502;9.752;2023-04-15T03:03:45;7.47;;;5.88;;
1545;SDS011;766;51.502;9.752;2023-04-15T03:06:15;8.68;;;6.95;;
1545;SDS011;766;51.502;9.752;2023-04-15T03:08:44;9.88;;;6.93;;
1545;SDS011;766;51.502;9.752;2023-04-15T03:11:13;8.93;;;7.07;;
1545;SDS011;766;51.502;9.752;2023-04-15T03:13:42;10.43;;;7.18;;
1545;SDS011;766;51.502;9.752;2023-04-15T03:16:11;9.02;;;7.40;;
1545;SDS011;766;51.502;9.752;2023-04-15T03:18:39;11.85;;;7.40;;
1545;SDS011;766;51.502;9.752;2023-04-15T03:21:07;9.48;;;7.57;;
1545;SDS011;766;51.502;9.752;2023-04-15T03:23:37;11.80;;;8.57;;
1545;SDS011;766;51.502;9.752;2023-04-15T03:26:06;11.90;;;8.98;;
1545;SDS011;766;51.502;9.752;2023-04-15T03:28:34;11.10;;;9.05;;
1545;SDS011;766;51.502;9.752;2023-04-15T03:31:03;11.50;;;9.35;;
1545;SDS011;766;51.502;9.752;2023-04-15T03:33:31;13.55;;;9.65;;
1545;SDS011;766;51.502;9.752;2023-04-15T03:36:00;11.82;;;9.70;;
1545;SDS011;766;51.502;9.752;2023-04-15T03:38:28;12.65;;;9.40;;
1545;SDS011;766;51.502;9.752;2023-04-15T03:40:58;12.25;;;10.07;;
1545;SDS011;766;51.502;9.752;2023-04-15T03:43:27;14.60;;;10.98;;
1545;SDS011;766;51.502;9.752;2023-04-15T03:45:55;11.68;;;9.15;;
1545;SDS011;766;51.502;9.752;2023-04-15T03:48:27;12.85;;;8.98;;
1545;SDS011;766;51.502;9.752;2023-04-15T03:50:55;12.50;;;9.20;;
1545;SDS011;766;51.502;9.752;2023-04-15T03:53:23;13.15;;;9.27;;
1545;SDS011;766;51.502;9.752;2023-04-15T03:55:52;11.18;;;9.02;;
1545;SDS011;766;51.502;9.752;2023-04-15T03:58:22;10.95;;;8.60;;
1545;SDS011;766;51.502;9.752;2023-04-15T04:00:51;11.52;;;8.88;;
1545;SDS011;766;51.502;9.752;2023-04-15T04:03:20;10.45;;;8.25;;
1545;SDS011;766;51.502;9.752;2023-04-15T04:05:48;12.45;;;8.48;;
1545;SDS011;766;51.502;9.752;2023-04-15T04:08:21;11.38;;;8.80;;
1545;SDS011;766;51.502;9.752;2023-04-15T04:10:49;12.15;;;9.02;;
1545;SDS011;766;51.502;9.752;2023-04-15T04:13:18;11.18;;;8.38;;
1545;SDS011;766;51.502;9.752;2023-04-15T04:15:48;13.00;;;8.85;;
1545;SDS011;766;51.502;9.752;2023-04-15T04:18:19;11.18;;;8.82;;
1545;SDS011;766;51.502;9.752;2023-04-15T04:20:48;14.30;;;8.90;;
1545;SDS011;766;51.502;9.752;2023-04-15T04:23:16;12.32;;;9.38;;
1545;SDS011;766;51.502;9.752;2023-04-15T04:25:45;12.32;;;9.30;;
1545;SDS011;766;51.502;9.752;2023-04-15T04:28:13;12.02;;;8.73;;
1545;SDS011;766;51.502;9.752;2023-04-15T04:30:42;12.40;;;9.18;;
1545;SDS011;766;51.502;9.752;2023-04-15T04:33:12;11.13;;;8.55;;
1545;SDS011;766;51.502;9.752;2023-04-15T04:35:40;13.45;;;9.80;;
1545;SDS011;766;51.502;9.752;2023-04-15T04:38:09;12.20;;;8.55;;
1545;SDS011;766;51.502;9.752;2023-04-15T04:40:37;11.52;;;8.63;;
1545;SDS011;766;51.502;9.752;2023-04-15T04:43:06;11.77;;;8.70;;
1545;SDS011;766;51.502;9.752;2023-04-15T04:45:34;11.10;;;7.95;;
1545;SDS011;766;51.502;9.752;2023-04-15T04:48:03;11.57;;;8.80;;
1545;SDS011;766;51.502;9.752;2023-04-15T04:50:34;10.48;;;7.90;;
1545;SDS011;766;51.502;9.752;2023-04-15T04:53:03;11.75;;;8.45;;
1545;SDS011;766;51.502;9.752;2023-04-15T04:55:31;10.10;;;7.65;;
1545;SDS011;766;51.502;9.752;2023-04-15T04:58:02;10.45;;;7.93;;
1545;SDS011;766;51.502;9.752;2023-04-15T05:00:30;9.40;;;7.95;;
1545;SDS011;766;51.502;9.752;2023-04-15T05:02:59;13.07;;;7.80;;
1545;SDS011;766;51.502;9.752;2023-04-15T05:05:27;10.93;;;7.90;;
1545;SDS011;766;51.502;9.752;2023-04-15T05:07:57;12.55;;;7.97;;
1545;SDS011;766;51.502;9.752;2023-04-15T05:10:25;9.85;;;7.88;;
1545;SDS011;766;51.502;9.752;2023-04-15T05:12:54;10.50;;;7.72;;
1545;SDS011;766;51.502;9.752;2023-04-15T05:15:22;10.90;;;7.63;;
1545;SDS011;766;51.502;9.752;2023-04-15T05:17:50;11.05;;;7.18;;
1545;SDS011;766;51.502;9.752;2023-04-15T05:20:19;9.30;;;7.32;;
1545;SDS011;766;51.502;9.752;2023-04-15T05:22:47;11.40;;;8.55;;
1545;SDS011;766;51.502;9.752;2023-04-15T05:25:17;11.57;;;8.88;;
1545;SDS011;766;51.502;9.752;2023-04-15T05:27:45;12.02;;;8.43;;
1545;SDS011;766;51.502;9.752;2023-04-15T05:30:14;11.48;;;8.13;;
1545;SDS011;766;51.502;9.752;2023-04-15T05:32:42;12.10;;;7.70;;
1545;SDS011;766;51.502;9.752;2023-04-15T05:35:11;11.82;;;7.72;;
1545;SDS011;766;51.502;9.752;2023-04-15T05:37:39;14.40;;;7.90;;
1545;SDS011;766;51.502;9.752;2023-04-15T05:40:08;11.27;;;7.88;;
1545;SDS011;766;51.502;9.752;2023-04-15T05:42:38;12.05;;;8.10;;
1545;SDS011;766;51.502;9.752;2023-04-15T05:45:06;10.77;;;7.88;;
1545;SDS011;766;51.502;9.752;2023-04-15T05:47:35;13.32;;;7.82;;
1545;SDS011;766;51.502;9.752;2023-04-15T05:50:04;10.85;;;7.57;;
1545;SDS011;766;51.502;9.752;2023-04-15T05:52:33;11.07;;;8.07;;
1545;SDS011;766;51.502;9.752;2023-04-15T05:55:03;11.07;;;8.18;;
1545;SDS011;766;51.502;9.752;2023-04-15T05:57:31;10.60;;;7.75;;
1545;SDS011;766;51.502;9.752;2023-04-15T06:00:01;10.27;;;8.02;;
1545;SDS011;766;51.502;9.752;2023-04-15T06:02:30;10.82;;;7.65;;
1545;SDS011;766;51.502;9.752;2023-04-15T06:04:59;10.57;;;7.38;;
1545;SDS011;766;51.502;9.752;2023-04-15T06:07:27;10.23;;;7.70;;
1545;SDS011;766;51.502;9.752;2023-04-15T06:09:55;9.35;;;7.50;;
1545;SDS011;766;51.502;9.752;2023-04-15T06:12:24;10.80;;;8.18;;
1545;SDS011;766;51.502;9.752;2023-04-15T06:14:52;11.05;;;7.90;;
1545;SDS011;766;51.502;9.752;2023-04-15T06:17:22;8.77;;;6.95;;
1545;SDS011;766;51.502;9.752;2023-04-15T06:19:51;10.38;;;7.30;;
1545;SDS011;766;51.502;9.752;2023-04-15T06:22:21;12.35;;;8.27;;
1545;SDS011;766;51.502;9.752;2023-04-15T06:24:50;11.77;;;8.00;;
1545;SDS011;766;51.502;9.752;2023-04-15T06:27:18;11.95;;;8.65;;
1545;SDS011;766;51.502;9.752;2023-04-15T06:29:48;14.35;;;8.50;;
1545;SDS011;766;51.502;9.752;2023-04-15T06:32:16;12.70;;;9.05;;
1545;SDS011;766;51.502;9.752;2023-04-15T06:34:46;12.88;;;8.90;;
1545;SDS011;766;51.502;9.752;2023-04-15T06:37:14;12.63;;;9.10;;
1545;SDS011;766;51.502;9.752;2023-04-15T06:39:42;12.98;;;9.35;;
1545;SDS011;766;51.502;9.752;2023-04-15T06:42:11;13.02;;;8.38;;
1545;SDS011;766;51.502;9.752;2023-04-15T06:44:39;12.95;;;9.07;;
1545;SDS011;766;51.502;9.752;2023-04-15T06:47:08;12.82;;;9.07;;
1545;SDS011;766;51.502;9.752;2023-04-15T06:49:41;12.35;;;8.75;;
1545;SDS011;766;51.502;9.752;2023-04-15T06:52:11;14.20;;;9.52;;
1545;SDS011;766;51.502;9.752;2023-04-15T06:54:42;14.40;;;9.63;;
1545;SDS011;766;51.502;9.752;2023-04-15T06:57:19;12.70;;;8.88;;
1545;SDS011;766;51.502;9.752;2023-04-15T07:00:08;13.65;;;9.57;;
1545;SDS011;766;51.502;9.752;2023-04-15T07:02:38;13.70;;;9.85;;
1545;SDS011;766;51.502;9.752;2023-04-15T07:05:06;12.82;;;9.10;;
1545;SDS011;766;51.502;9.752;2023-04-15T07:07:42;12.85;;;9.10;;
1545;SDS011;766;51.502;9.752;2023-04-15T07:10:12;12.55;;;8.82;;
1545;SDS011;766;51.502;9.752;2023-04-15T07:12:42;13.65;;;9.48;;
1545;SDS011;766;51.502;9.752;2023-04-15T07:15:11;13.20;;;8.70;;
1545;SDS011;766;51.502;9.752;2023-04-15T07:17:40;13.43;;;9.23;;
1545;SDS011;766;51.502;9.752;2023-04-15T07:20:09;12.15;;;9.05;;
1545;SDS011;766;51.502;9.752;2023-04-15T07:22:38;13.15;;;9.27;;
1545;SDS011;766;51.502;9.752;2023-04-15T07:25:08;12.93;;;9.50;;
1545;SDS011;766;51.502;9.752;2023-04-15T07:27:37;12.82;;;9.43;;
1545;SDS011;766;51.502;9.752;2023-04-15T07:30:05;14.25;;;9.30;;
1545;SDS011;766;51.502;9.752;2023-04-15T07:32:36;16.67;;;9.55;;
1545;SDS011;766;51.502;9.752;2023-04-15T07:35:05;12.68;;;9.27;;
1545;SDS011;766;51.502;9.752;2023-04-15T07:37:33;12.98;;;9.23;;
1545;SDS011;766;51.502;9.752;2023-04-15T07:40:02;12.43;;;9.25;;
1545;SDS011;766;51.502;9.752;2023-04-15T07:42:33;11.48;;;8.48;;
1545;SDS011;766;51.502;9.752;2023-04-15T07:45:05;11.82;;;8.85;;
1545;SDS011;766;51.502;9.752;2023-04-15T07:47:35;12.68;;;9.07;;
1545;SDS011;766;51.502;9.752;2023-04-15T07:50:03;12.35;;;8.77;;
1545;SDS011;766;51.502;9.752;2023-04-15T07:52:32;13.93;;;9.02;;
1545;SDS011;766;51.502;9.752;2023-04-15T07:55:05;13.18;;;9.20;;
1545;SDS011;766;51.502;9.752;2023-04-15T07:57:35;13.23;;;9.35;;
1545;SDS011;766;51.502;9.752;2023-04-15T08:00:04;10.73;;;8.20;;
1545;SDS011;766;51.502;9.752;2023-04-15T08:02:33;12.77;;;9.32;;
1545;SDS011;766;51.502;9.752;2023-04-15T08:05:05;10.98;;;8.15;;
1545;SDS011;766;51.502;9.752;2023-04-15T08:07:34;10.60;;;7.85;;
1545;SDS011;766;51.502;9.752;2023-04-15T08:10:04;10.75;;;7.60;;
1545;SDS011;766;51.502;9.752;2023-04-15T08:12:33;12.00;;;7.97;;
1545;SDS011;766;51.502;9.752;2023-04-15T08:15:03;9.32;;;7.80;;
1545;SDS011;766;51.502;9.752;2023-04-15T08:17:33;10.38;;;7.60;;
1545;SDS011;766;51.502;9.752;2023-04-15T08:20:02;11.82;;;8.10;;
1545;SDS011;766;51.502;9.752;2023-04-15T08:22:31;10.80;;;7.78;;
1545;SDS011;766;51.502;9.752;2023-04-15T08:24:59;11.07;;;8.23;;
1545;SDS011;766;51.502;9.752;2023-04-15T08:27:29;9.80;;;7.60;;
1545;SDS011;766;51.502;9.752;2023-04-15T08:29:57;11.50;;;8.80;;
1545;SDS011;766;51.502;9.752;2023-04-15T08:32:30;13.82;;;8.73;;
1545;SDS011;766;51.502;9.752;2023-04-15T08:34:59;12.93;;;8.30;;
1545;SDS011;766;51.502;9.752;2023-04-15T08:37:27;12.45;;;8.52;;
1545;SDS011;766;51.502;9.752;2023-04-15T08:39:55;10.98;;;7.75;;
1545;SDS011;766;51.502;9.752;2023-04-15T08:42:26;9.50;;;7.35;;
1545;SDS011;766;51.502;9.752;2023-04-15T08:44:58;8.65;;;6.55;;
1545;SDS011;766;51.502;9.752;2023-04-15T08:47:28;11.13;;;6.60;;
1545;SDS011;766;51.502;9.752;2023-04-15T08:50:00;9.23;;;6.93;;
1545;SDS011;766;51.502;9.752;2023-04-15T08:52:31;9.20;;;7.10;;
1545;SDS011;766;51.502;9.752;2023-04-15T08:54:59;10.38;;;7.60;;
1545;SDS011;766;51.502;9.752;2023-04-15T08:57:30;9.43;;;6.80;;
1545;SDS011;766;51.502;9.752;2023-04-15T09:00:00;6.80;;;5.50;;
1545;SDS011;766;51.502;9.752;2023-04-15T09:02:32;8.10;;;5.95;;
1545;SDS011;766;51.502;9.752;2023-04-15T09:05:02;8.48;;;6.30;;
1545;SDS011;766;51.502;9.752;2023-04-15T09:07:32;6.50;;;5.15;;
1545;SDS011;766;51.502;9.752;2023-04-15T09:10:02;6.82;;;5.50;;
1545;SDS011;766;51.502;9.752;2023-04-15T09:12:33;6.53;;;5.32;;
1545;SDS011;766;51.502;9.752;2023-04-15T09:15:02;6.50;;;5.20;;
1545;SDS011;766;51.502;9.752;2023-04-15T09:17:33;6.38;;;5.13;;
1545;SDS011;766;51.502;9.752;2023-04-15T09:20:08;5.63;;;4.40;;
1545;SDS011;766;51.502;9.752;2023-04-15T09:22:38;7.00;;;4.70;;
1545;SDS011;766;51.502;9.752;2023-04-15T09:28:00;5.22;;;4.32;;
1545;SDS011;766;51.502;9.752;2023-04-15T09:30:29;4.95;;;4.10;;
1545;SDS011;766;51.502;9.752;2023-04-15T09:33:00;4.97;;;3.97;;
1545;SDS011;766;51.502;9.752;2023-04-15T09:35:33;5.28;;;4.10;;
1545;SDS011;766;51.502;9.752;2023-04-15T09:38:02;4.28;;;3.53;;
1545;SDS011;766;51.502;9.752;2023-04-15T09:40:33;4.28;;;3.40;;
1545;SDS011;766;51.502;9.752;2023-04-15T09:43:02;4.03;;;3.08;;
1545;SDS011;766;51.502;9.752;2023-04-15T09:45:31;3.28;;;2.83;;
1545;SDS011;766;51.502;9.752;2023-04-15T09:48:14;3.50;;;2.67;;
1545;SDS011;766;51.502;9.752;2023-04-15T09:50:44;3.22;;;2.53;;
1545;SDS011;766;51.502;9.752;2023-04-15T09:53:18;3.70;;;2.78;;
1545;SDS011;766;51.502;9.752;2023-04-15T09:55:51;4.05;;;2.70;;
1545;SDS011;766;51.502;9.752;2023-04-15T09:58:21;3.70;;;2.60;;
1545;SDS011;766;51.502;9.752;2023-04-15T10:00:50;4.72;;;2.53;;
1545;SDS011;766;51.502;9.752;2023-04-15T10:03:22;2.67;;;2.05;;
1545;SDS011;766;51.502;9.752;2023-04-15T10:05:52;3.00;;;2.47;;
1545;SDS011;766;51.502;9.752;2023-04-15T10:08:21;2.92;;;2.30;;
1545;SDS011;766;51.502;9.752;2023-04-15T10:10:52;3.22;;;2.53;;
1545;SDS011;766;51.502;9.752;2023-04-15T10:13:21;3.50;;;2.20;;
1545;SDS011;766;51.502;9.752;2023-04-15T10:15:53;2.60;;;2.10;;
1545;SDS011;766;51.502;9.752;2023-04-15T10:18:26;2.40;;;2.10;;
1545;SDS011;766;51.502;9.752;2023-04-15T10:20:55;3.05;;;2.40;;
1545;SDS011;766;51.502;9.752;2023-04-15T10:23:24;3.28;;;2.22;;
1545;SDS011;766;51.502;9.752;2023-04-15T10:25:54;2.60;;;2.00;;
1545;SDS011;766;51.502;9.752;2023-04-15T10:28:23;3.10;;;2.22;;
1545;SDS011;766;51.502;9.752;2023-04-15T10:30:52;2.53;;;2.13;;
1545;SDS011;766;51.502;9.752;2023-04-15T10:33:21;2.08;;;1.88;;
1545;SDS011;766;51.502;9.752;2023-04-15T10:35:55;2.70;;;2.38;;
1545;SDS011;766;51.502;9.752;2023-04-15T10:38:30;2.38;;;2.08;;
1545;SDS011;766;51.502;9.752;2023-04-15T10:43:48;2.55;;;2.10;;
1545;SDS011;766;51.502;9.752;2023-04-15T10:46:19;3.22;;;2.45;;
1545;SDS011;766;51.502;9.752;2023-04-15T10:48:50;3.25;;;2.20;;
1545;SDS011;766;51.502;9.752;2023-04-15T10:51:28;6.25;;;2.13;;
1545;SDS011;766;51.502;9.752;2023-04-15T10:54:01;2.20;;;1.98;;
1545;SDS011;766;51.502;9.752;2023-04-15T10:56:29;2.17;;;1.80;;
1545;SDS011;766;51.502;9.752;2023-04-15T10:58:59;2.55;;;1.98;;
1545;SDS011;766;51.502;9.752;2023-04-15T11:07:36;1.30;;;1.20;;
1545;SDS011;766;51.502;9.752;2023-04-15T11:13:22;2.25;;;1.70;;
1545;SDS011;766;51.502;9.752;2023-04-15T11:15:58;2.10;;;1.90;;
1545;SDS011;766;51.502;9.752;2023-04-15T11:18:32;2.65;;;1.70;;
1545;SDS011;766;51.502;9.752;2023-04-15T11:21:04;2.63;;;2.42;;
1545;SDS011;766;51.502;9.752;2023-04-15T11:23:36;2.25;;;1.92;;
1545;SDS011;766;51.502;9.752;2023-04-15T11:26:06;2.63;;;1.88;;
1545;SDS011;766;51.502;9.752;2023-04-15T11:28:37;2.35;;;2.00;;
1545;SDS011;766;51.502;9.752;2023-04-15T11:31:07;2.70;;;2.20;;
1545;SDS011;766;51.502;9.752;2023-04-15T11:33:38;2.15;;;1.90;;
1545;SDS011;766;51.502;9.752;2023-04-15T11:36:12;3.30;;;2.05;;
1545;SDS011;766;51.502;9.752;2023-04-15T11:38:43;2.50;;;1.70;;
1545;SDS011;766;51.502;9.752;2023-04-15T11:41:13;1.95;;;1.60;;
1545;SDS011;766;51.502;9.752;2023-04-15T11:43:42;2.75;;;2.40;;
1545;SDS011;766;51.502;9.752;2023-04-15T11:46:10;2.15;;;1.95;;
1545;SDS011;766;51.502;9.752;2023-04-15T11:48:41;2.70;;;2.30;;
1545;SDS011;766;51.502;9.752;2023-04-15T11:51:10;2.88;;;2.15;;
1545;SDS011;766;51.502;9.752;2023-04-15T11:53:40;2.58;;;2.03;;
1545;SDS011;766;51.502;9.752;2023-04-15T11:56:15;3.05;;;2.25;;
1545;SDS011;766;51.502;9.752;2023-04-15T11:58:44;2.55;;;2.35;;
1545;SDS011;766;51.502;9.752;2023-04-15T12:01:13;2.70;;;2.20;;
1545;SDS011;766;51.502;9.752;2023-04-15T12:03:42;2.65;;;2.33;;
1545;SDS011;766;51.502;9.752;2023-04-15T12:06:15;2.28;;;1.95;;
1545;SDS011;766;51.502;9.752;2023-04-15T12:08:59;2.70;;;2.30;;
1545;SDS011;766;51.502;9.752;2023-04-15T12:11:32;2.70;;;2.38;;
1545;SDS011;766;51.502;9.752;2023-04-15T12:14:03;2.67;;;2.22;;
1545;SDS011;766;51.502;9.752;2023-04-15T12:16:34;2.58;;;2.20;;
1545;SDS011;766;51.502;9.752;2023-04-15T12:19:15;2.72;;;2.10;;
1545;SDS011;766;51.502;9.752;2023-04-15T12:21:46;2.83;;;2.25;;
1545;SDS011;766;51.502;9.752;2023-04-15T12:24:18;3.03;;;2.20;;
1545;SDS011;766;51.502;9.752;2023-04-15T12:26:49;3.35;;;2.35;;
1545;SDS011;766;51.502;9.752;2023-04-15T12:29:19;2.88;;;2.17;;
1545;SDS011;766;51.502;9.752;2023-04-15T12:31:58;2.80;;;2.45;;
1545;SDS011;766;51.502;9.752;2023-04-15T12:34:31;3.03;;;2.67;;
1545;SDS011;766;51.502;9.752;2023-04-15T12:37:02;3.97;;;2.67;;
1545;SDS011;766;51.502;9.752;2023-04-15T12:39:35;2.72;;;2.47;;
1545;SDS011;766;51.502;9.752;2023-04-15T12:42:04;7.00;;;2.80;;
1545;SDS011;766;51.502;9.752;2023-04-15T12:44:34;2.88;;;2.58;;
1545;SDS011;766;51.502;9.752;2023-04-15T12:47:03;3.00;;;2.40;;
1545;SDS011;766;51.502;9.752;2023-04-15T12:49:33;3.67;;;2.65;;
1545;SDS011;766;51.502;9.752;2023-04-15T12:52:02;2.95;;;2.65;;
1545;SDS011;766;51.502;9.752;2023-04-15T12:54:30;3.55;;;2.75;;
1545;SDS011;766;51.502;9.752;2023-04-15T12:57:01;3.53;;;2.70;;
1545;SDS011;766;51.502;9.752;2023-04-15T12:59:32;4.40;;;2.92;;
1545;SDS011;766;51.502;9.752;2023-04-15T13:02:01;3.45;;;2.90;;
1545;SDS011;766;51.502;9.752;2023-04-15T13:04:30;3.67;;;3.03;;
1545;SDS011;766;51.502;9.752;2023-04-15T13:06:59;4.97;;;3.40;;
1545;SDS011;766;51.502;9.752;2023-04-15T13:09:28;4.03;;;3.20;;
1545;SDS011;766;51.502;9.752;2023-04-15T13:11:56;4.25;;;3.65;;
1545;SDS011;766;51.502;9.752;2023-04-15T13:14:26;4.80;;;3.58;;
1545;SDS011;766;51.502;9.752;2023-04-15T13:16:54;5.03;;;4.00;;
1545;SDS011;766;51.502;9.752;2023-04-15T13:19:25;5.30;;;3.95;;
1545;SDS011;766;51.502;9.752;2023-04-15T13:21:54;5.43;;;3.78;;
1545;SDS011;766;51.502;9.752;2023-04-15T13:24:22;5.57;;;4.20;;
1545;SDS011;766;51.502;9.752;2023-04-15T13:26:51;5.35;;;4.13;;
1545;SDS011;766;51.502;9.752;2023-04-15T13:29:19;6.28;;;4.28;;
1545;SDS011;766;51.502;9.752;2023-04-15T13:31:50;6.95;;;5.00;;
1545;SDS011;766;51.502;9.752;2023-04-15T13:34:18;7.13;;;5.57;;
1545;SDS011;766;51.502;9.752;2023-04-15T13:36:47;8.27;;;5.82;;
1545;SDS011;766;51.502;9.752;2023-04-15T13:39:15;8.00;;;5.88;;
1545;SDS011;766;51.502;9.752;2023-04-15T13:41:43;6.63;;;5.10;;
1545;SDS011;766;51.502;9.752;2023-04-15T13:44:13;7.90;;;5.65;;
1545;SDS011;766;51.502;9.752;2023-04-15T13:46:42;8.68;;;5.88;;
1545;SDS011;766;51.502;9.752;2023-04-15T13:49:12;7.40;;;5.50;;
1545;SDS011;766;51.502;9.752;2023-04-15T13:51:40;8.82;;;6.20;;
1545;SDS011;766;51.502;9.752;2023-04-15T13:54:09;8.82;;;5.63;;
1545;SDS011;766;51.502;9.752;2023-04-15T13:56:37;8.65;;;5.95;;
1545;SDS011;766;51.502;9.752;2023-04-15T13:59:05;7.25;;;5.72;;
1545;SDS011;766;51.502;9.752;2023-04-15T14:01:34;11.13;;;6.13;;
1545;SDS011;766;51.502;9.752;2023-04-15T14:04:02;11.30;;;6.78;;
1545;SDS011;766;51.502;9.752;2023-04-15T14:06:32;8.15;;;6.35;;
1545;SDS011;766;51.502;9.752;2023-04-15T14:09:04;8.85;;;6.40;;
1545;SDS011;766;51.502;9.752;2023-04-15T14:11:33;9.65;;;6.25;;
1545;SDS011;766;51.502;9.752;2023-04-15T14:14:02;9.18;;;5.90;;
1545;SDS011;766;51.502;9.752;2023-04-15T14:16:33;9.27;;;6.75;;
1545;SDS011;766;51.502;9.752;2023-04-15T14:19:02;10.50;;;6.35;;
1545;SDS011;766;51.502;9.752;2023-04-15T14:21:30;10.23;;;6.75;;
1545;SDS011;766;51.502;9.752;2023-04-15T14:24:00;11.05;;;7.30;;
1545;SDS011;766;51.502;9.752;2023-04-15T14:26:29;11.82;;;7.25;;
1545;SDS011;766;51.502;9.752;2023-04-15T14:28:57;9.48;;;6.85;;
1545;SDS011;766;51.502;9.752;2023-04-15T14:31:25;10.70;;;7.00;;
1545;SDS011;766;51.502;9.752;2023-04-15T14:33:54;11.70;;;7.10;;
1545;SDS011;766;51.502;9.752;2023-04-15T14:36:22;11.00;;;7.28;;
1545;SDS011;766;51.502;9.752;2023-04-15T14:38:52;10.77;;;7.07;;
1545;SDS011;766;51.502;9.752;2023-04-15T14:41:21;9.48;;;6.57;;
1545;SDS011;766;51.502;9.752;2023-04-15T14:43:49;11.60;;;7.63;;
1545;SDS011;766;51.502;9.752;2023-04-15T14:46:17;13.70;;;7.85;;
1545;SDS011;766;51.502;9.752;2023-04-15T14:48:46;13.63;;;8.23;;
1545;SDS011;766;51.502;9.752;2023-04-15T14:51:15;14.52;;;8.20;;
1545;SDS011;766;51.502;9.752;2023-04-15T14:53:44;13.45;;;8.05;;
1545;SDS011;766;51.502;9.752;2023-04-15T14:56:13;13.50;;;8.45;;
1545;SDS011;766;51.502;9.752;2023-04-15T14:58:42;13.65;;;7.82;;
1545;SDS011;766;51.502;9.752;2023-04-15T15:01:10;14.07;;;8.25;;
1545;SDS011;766;51.502;9.752;2023-04-15T15:03:39;13.55;;;7.97;;
1545;SDS011;766;51.502;9.752;2023-04-15T15:06:07;12.77;;;7.95;;
1545;SDS011;766;51.502;9.752;2023-04-15T15:08:36;13.68;;;8.40;;
1545;SDS011;766;51.502;9.752;2023-04-15T15:11:04;14.52;;;7.70;;
1545;SDS011;766;51.502;9.752;2023-04-15T15:13:35;14.40;;;7.93;;
1545;SDS011;766;51.502;9.752;2023-04-15T15:16:04;16.38;;;9.38;;
1545;SDS011;766;51.502;9.752;2023-04-15T15:18:32;14.07;;;8.73;;
1545;SDS011;766;51.502;9.752;2023-04-15T15:21:02;15.93;;;9.60;;
1545;SDS011;766;51.502;9.752;2023-04-15T15:23:30;14.00;;;7.82;;
1545;SDS011;766;51.502;9.752;2023-04-15T15:25:59;12.80;;;7.97;;
1545;SDS011;766;51.502;9.752;2023-04-15T15:28:27;15.27;;;9.07;;
1545;SDS011;766;51.502;9.752;2023-04-15T15:30:57;14.27;;;8.23;;
1545;SDS011;766;51.502;9.752;2023-04-15T15:33:25;17.55;;;9.07;;
1545;SDS011;766;51.502;9.752;2023-04-15T15:35:56;15.05;;;8.82;;
1545;SDS011;766;51.502;9.752;2023-04-15T15:38:24;14.70;;;9.30;;
1545;SDS011;766;51.502;9.752;2023-04-15T15:40:52;20.95;;;10.60;;
1545;SDS011;766;51.502;9.752;2023-04-15T15:43:21;17.65;;;9.63;;
1545;SDS011;766;51.502;9.752;2023-04-15T15:45:49;16.55;;;9.10;;
1545;SDS011;766;51.502;9.752;2023-04-15T15:48:22;18.38;;;9.70;;
1545;SDS011;766;51.502;9.752;2023-04-15T15:50:51;17.05;;;9.45;;
1545;SDS011;766;51.502;9.752;2023-04-15T15:53:19;15.80;;;9.60;;